createdAt,value
2016-06-27T00:01:02.336Z,14.7
2016-06-27T00:04:15.727Z,14.6
2016-06-27T00:07:28.879Z,14.6
2016-06-27T00:10:45.396Z,14.5
2016-06-27T00:13:48.856Z,14.5
2016-06-27T00:17:02.184Z,14.4
2016-06-27T00:20:15.256Z,14.4
2016-06-27T00:23:28.367Z,14.4
2016-06-27T00:26:46.797Z,14.4
2016-06-27T00:29:50.306Z,14.4
2016-06-27T00:33:03.754Z,14.4
2016-06-27T00:36:17.166Z,14.3
2016-06-27T00:39:30.486Z,14.3
2016-06-27T00:42:48.834Z,14.3
2016-06-27T00:45:52.443Z,14.3
2016-06-27T00:49:05.173Z,14.3
2016-06-27T00:52:18.286Z,14.3
2016-06-27T00:55:31.726Z,14.2
2016-06-27T00:58:50.004Z,14.2
2016-06-27T01:01:53.521Z,14.1
2016-06-27T01:05:07.106Z,14.1
2016-06-27T01:08:19.429Z,14.1
2016-06-27T01:11:32.886Z,14.1
2016-06-27T01:14:49.250Z,14
2016-06-27T01:17:52.993Z,14
2016-06-27T01:21:05.236Z,14
2016-06-27T01:24:18.614Z,13.9
2016-06-27T01:27:29.889Z,13.9
2016-06-27T01:30:50.543Z,13.9
2016-06-27T01:33:54.315Z,13.9
2016-06-27T01:37:07.265Z,13.8
2016-06-27T01:40:20.663Z,13.8
2016-06-27T01:43:34.037Z,13.8
2016-06-27T01:46:47.471Z,13.7
2016-06-27T01:50:00.745Z,13.7
2016-06-27T01:53:14.013Z,13.7
2016-06-27T01:56:27.434Z,13.6
2016-06-27T01:59:45.446Z,13.5
2016-06-27T02:02:49.097Z,13.5
2016-06-27T02:06:02.319Z,13.5
2016-06-27T02:09:15.733Z,13.4
2016-06-27T02:12:29.110Z,13.4
2016-06-27T02:15:47.255Z,13.5
2016-06-27T02:18:50.743Z,13.5
2016-06-27T02:22:04.046Z,13.5
2016-06-27T02:25:14.845Z,13.4
2016-06-27T02:28:30.080Z,13.4
2016-06-27T02:31:47.468Z,13.4
2016-06-27T02:34:48.637Z,13.4
2016-06-27T02:38:03.992Z,13.3
2016-06-27T02:41:17.320Z,13.3
2016-06-27T02:44:30.500Z,13.3
2016-06-27T02:47:48.641Z,13.2
2016-06-27T02:50:52.037Z,13.3
2016-06-27T02:54:01.793Z,13.3
2016-06-27T02:57:14.973Z,13.3
2016-06-27T03:00:27.979Z,13.3
2016-06-27T03:03:42.841Z,13.3
2016-06-27T03:06:51.075Z,13.4
2016-06-27T03:09:54.375Z,13.4
2016-06-27T03:13:07.524Z,13.4
2016-06-27T03:16:20.180Z,13.4
2016-06-27T03:19:33.425Z,13.4
2016-06-27T03:22:51.563Z,13.4
2016-06-27T03:25:52.972Z,13.4
2016-06-27T03:29:07.974Z,13.4
2016-06-27T03:32:21.122Z,13.4
2016-06-27T03:35:34.468Z,13.4
2016-06-27T03:38:47.639Z,13.3
2016-06-27T03:41:58.446Z,13.2
2016-06-27T03:45:11.154Z,13.3
2016-06-27T03:48:24.483Z,13.3
2016-06-27T03:51:37.081Z,13.3
2016-06-27T03:54:50.283Z,13.3
2016-06-27T03:58:03.639Z,13.3
2016-06-27T04:01:17.012Z,13.3
2016-06-27T04:04:30.099Z,13.4
2016-06-27T04:07:47.685Z,13.4
2016-06-27T04:10:49.214Z,13.6
2016-06-27T04:14:04.483Z,13.7
2016-06-27T04:17:17.670Z,13.8
2016-06-27T04:20:30.563Z,13.8
2016-06-27T04:23:48.683Z,13.8
2016-06-27T04:26:52.063Z,13.8
2016-06-27T04:30:04.869Z,13.8
2016-06-27T04:33:18.139Z,14
2016-06-27T04:36:31.172Z,14.1
2016-06-27T04:39:49.585Z,14.2
2016-06-27T04:42:53.110Z,14.3
2016-06-27T04:46:06.524Z,14.4
2016-06-27T04:49:20.054Z,14.4
2016-06-27T04:52:33.595Z,14.5
2016-06-27T04:55:52.359Z,14.5
2016-06-27T04:58:56.270Z,14.4
2016-06-27T05:02:09.952Z,14.4
2016-06-27T05:05:23.786Z,14.4
2016-06-27T05:08:37.489Z,14.5
2016-06-27T05:11:49.736Z,14.5
2016-06-27T05:15:02.960Z,14.5
2016-06-27T05:18:16.611Z,14.5
2016-06-27T05:21:28.144Z,14.5
2016-06-27T05:24:49.184Z,14.6
2016-06-27T05:27:53.202Z,14.8
2016-06-27T05:31:04.040Z,15
2016-06-27T05:34:17.786Z,15
2016-06-27T05:37:29.702Z,15.1
2016-06-27T05:40:50.381Z,15.1
2016-06-27T05:43:54.328Z,15.1
2016-06-27T05:47:08.266Z,15.3
2016-06-27T05:50:22.117Z,15.4
2016-06-27T05:53:33.781Z,15.6
2016-06-27T05:56:50.910Z,15.7
2016-06-27T05:59:55.196Z,15.8
2016-06-27T06:03:09.299Z,15.8
2016-06-27T06:06:23.262Z,15.9
2016-06-27T06:09:37.077Z,16.1
2016-06-27T06:12:50.868Z,16.3
2016-06-27T06:16:04.882Z,16.4
2016-06-27T06:19:19.174Z,16.4
2016-06-27T06:22:31.475Z,16.4
2016-06-27T06:25:50.011Z,16.6
2016-06-27T06:28:54.504Z,16.7
2016-06-27T06:32:08.431Z,16.8
2016-06-27T06:35:22.285Z,16.8
2016-06-27T06:38:36.390Z,16.8
2016-06-27T06:41:50.600Z,16.8
2016-06-27T06:45:02.728Z,16.7
2016-06-27T06:48:16.948Z,16.7
2016-06-27T06:51:28.826Z,16.6
2016-06-27T06:54:50.089Z,16.8
2016-06-27T06:57:54.477Z,16.9
2016-06-27T07:01:08.538Z,17.1
2016-06-27T07:04:22.706Z,17.1
2016-06-27T07:07:36.727Z,17.2
2016-06-27T07:10:49.185Z,17.4
2016-06-27T07:14:03.599Z,17.4
2016-06-27T07:17:16.774Z,17.7
2016-06-27T07:20:31.223Z,18.2
2016-06-27T07:23:50.722Z,18.8
2016-06-27T07:26:55.581Z,19.6
2016-06-27T07:30:10.261Z,20.1
2016-06-27T07:33:24.863Z,20.7
2016-06-27T07:36:44.644Z,21.2
2016-06-27T07:39:49.736Z,21.9
2016-06-27T07:43:04.498Z,22.7
2016-06-27T07:46:19.775Z,23.4
2016-06-27T07:49:34.916Z,24.2
2016-06-27T07:52:50.036Z,24.3
2016-06-27T07:56:05.206Z,24.7
2016-06-27T07:59:20.407Z,25.5
2016-06-27T08:02:35.708Z,26.1
2016-06-27T08:05:50.845Z,26.4
2016-06-27T08:09:05.960Z,26.9
2016-06-27T08:12:21.196Z,27.4
2016-06-27T08:15:36.594Z,28.1
2016-06-27T08:18:51.857Z,28.2
2016-06-27T08:22:06.822Z,27.3
2016-06-27T08:25:21.893Z,27.1
2016-06-27T08:28:37.068Z,27.5
2016-06-27T08:31:51.908Z,28.2
2016-06-27T08:35:07.211Z,29.3
2016-06-27T08:38:22.624Z,29.1
2016-06-27T08:41:36.263Z,29.1
2016-06-27T08:44:51.285Z,28.8
2016-06-27T08:48:04.066Z,28.9
2016-06-27T08:51:19.002Z,28.8
2016-06-27T08:54:30.498Z,28.1
2016-06-27T08:57:49.776Z,27.3
2016-06-27T09:00:54.411Z,26.3
2016-06-27T09:04:08.888Z,26
2016-06-27T09:07:23.074Z,25.8
2016-06-27T09:10:37.533Z,25.5
2016-06-27T09:13:51.954Z,25.1
2016-06-27T09:17:06.281Z,24.6
2016-06-27T09:20:18.925Z,24.3
2016-06-27T09:23:33.335Z,24.2
2016-06-27T09:26:48.102Z,24.2
2016-06-27T09:30:02.374Z,24.1
2016-06-27T09:33:14.915Z,24.4
2016-06-27T09:36:29.525Z,24.8
2016-06-27T09:39:49.201Z,24.8
2016-06-27T09:42:54.038Z,24.4
2016-06-27T09:46:07.212Z,24.3
2016-06-27T09:49:22.061Z,25
2016-06-27T09:52:37.258Z,25.8
2016-06-27T09:55:52.155Z,26
2016-06-27T09:59:07.281Z,26.4
2016-06-27T10:02:22.286Z,26.6
2016-06-27T10:05:37.290Z,27.1
2016-06-27T10:08:51.429Z,26.4
2016-06-27T10:12:05.536Z,25.2
2016-06-27T10:15:19.592Z,24.2
2016-06-27T10:18:33.693Z,23.7
2016-06-27T10:21:52.271Z,23
2016-06-27T10:24:56.803Z,22.5
2016-06-27T10:28:10.520Z,22
2016-06-27T10:31:24.645Z,21.5
2016-06-27T10:34:35.136Z,21.2
2016-06-27T10:37:49.075Z,21.2
2016-06-27T10:41:03.326Z,21
2016-06-27T10:44:17.676Z,21.1
2016-06-27T10:47:26.491Z,21.2
2016-06-27T10:50:47.605Z,21.1
2016-06-27T10:53:52.197Z,21
2016-06-27T10:57:06.314Z,20.8
2016-06-27T11:00:18.644Z,20.6
2016-06-27T11:03:34.602Z,20.5
2016-06-27T11:06:50.830Z,20.3
2016-06-27T11:09:55.261Z,20.3
2016-06-27T11:13:09.227Z,20.3
2016-06-27T11:16:23.127Z,20.1
2016-06-27T11:19:35.220Z,20.2
2016-06-27T11:22:51.519Z,20.3
2016-06-27T11:26:05.711Z,20.4
2016-06-27T11:29:20.072Z,20.4
2016-06-27T11:32:33.524Z,20.4
2016-06-27T11:35:52.634Z,20.4
2016-06-27T11:38:57.159Z,20.3
2016-06-27T11:42:09.303Z,20.3
2016-06-27T11:45:21.373Z,20.2
2016-06-27T11:48:35.612Z,20.2
2016-06-27T11:51:49.655Z,20.3
2016-06-27T11:55:00.771Z,20.4
2016-06-27T11:58:14.992Z,20.5
2016-06-27T12:01:29.255Z,20.5
2016-06-27T12:04:48.295Z,20.4
2016-06-27T12:07:52.727Z,20.3
2016-06-27T12:11:06.902Z,20.2
2016-06-27T12:14:20.667Z,20.1
2016-06-27T12:17:34.933Z,20.1
2016-06-27T12:20:49.156Z,20.1
2016-06-27T12:24:03.280Z,20.1
2016-06-27T12:27:17.372Z,20.2
2016-06-27T12:30:31.175Z,20.3
2016-06-27T12:33:50.534Z,20.4
2016-06-27T12:36:55.087Z,20.5
2016-06-27T12:40:09.391Z,20.5
2016-06-27T12:43:23.639Z,20.5
2016-06-27T12:46:37.850Z,20.4
2016-06-27T12:49:49.824Z,20.3
2016-06-27T12:53:06.157Z,20.3
2016-06-27T12:56:18.012Z,20.3
2016-06-27T12:59:32.310Z,20.3
2016-06-27T13:02:51.716Z,20.4
2016-06-27T13:05:56.394Z,20.5
2016-06-27T13:09:10.653Z,20.6
2016-06-27T13:12:24.701Z,20.5
2016-06-27T13:15:43.987Z,20.5
2016-06-27T13:18:48.496Z,20.4
2016-06-27T13:22:02.467Z,20.2
2016-06-27T13:25:16.419Z,20.1
2016-06-27T13:28:30.567Z,20
2016-06-27T13:31:49.880Z,20
2016-06-27T13:34:54.236Z,20
2016-06-27T13:38:06.537Z,20.1
2016-06-27T13:41:20.469Z,20.1
2016-06-27T13:44:33.344Z,20.2
2016-06-27T13:47:52.416Z,20.2
2016-06-27T13:50:56.911Z,20.2
2016-06-27T13:54:10.473Z,20.2
2016-06-27T13:57:24.741Z,20.2
2016-06-27T14:00:43.882Z,20.2
2016-06-27T14:03:53.316Z,20.1
2016-06-27T14:06:57.741Z,20.1
2016-06-27T14:10:11.138Z,20.2
2016-06-27T14:13:25.345Z,20.2
2016-06-27T14:16:44.457Z,20.2
2016-06-27T14:19:48.902Z,20.2
2016-06-27T14:23:03.082Z,20.2
2016-06-27T14:26:17.012Z,20.2
2016-06-27T14:29:28.132Z,20.3
2016-06-27T14:32:47.080Z,20.3
2016-06-27T14:35:51.581Z,20.4
2016-06-27T14:39:04.207Z,20.4
2016-06-27T14:42:18.059Z,20.5
2016-06-27T14:45:30.350Z,20.4
2016-06-27T14:48:51.506Z,20.4
2016-06-27T14:51:55.847Z,20.4
2016-06-27T14:55:08.188Z,20.4
2016-06-27T14:58:22.221Z,20.3
2016-06-27T15:01:36.369Z,20.3
2016-06-27T15:04:52.263Z,20.3
2016-06-27T15:07:56.569Z,20.3
2016-06-27T15:11:07.067Z,20.3
2016-06-27T15:14:21.100Z,20.3
2016-06-27T15:17:35.291Z,20.2
2016-06-27T15:20:53.068Z,20.2
2016-06-27T15:23:57.305Z,20.2
2016-06-27T15:27:11.437Z,20.3
2016-06-27T15:30:25.662Z,20.3
2016-06-27T15:33:44.578Z,20.3
2016-06-27T15:36:48.938Z,20.3
2016-06-27T15:40:02.986Z,20.3
2016-06-27T15:43:16.898Z,20.1
2016-06-27T15:46:30.815Z,20
2016-06-27T15:49:47.698Z,19.9
2016-06-27T15:52:51.972Z,20
2016-06-27T15:56:06.027Z,20
2016-06-27T15:59:19.917Z,20.1
2016-06-27T16:02:34.007Z,20.1
2016-06-27T16:05:53.013Z,20.1
2016-06-27T16:08:57.383Z,20.1
2016-06-27T16:12:11.536Z,20.1
2016-06-27T16:15:24.902Z,20.1
2016-06-27T16:18:44.098Z,20.1
2016-06-27T16:21:53.486Z,20.1
2016-06-27T16:24:57.718Z,20.1
2016-06-27T16:28:11.780Z,20
2016-06-27T16:31:24.098Z,19.9
2016-06-27T16:34:36.294Z,19.9
2016-06-27T16:37:49.552Z,19.8
2016-06-27T16:41:03.740Z,19.7
2016-06-27T16:44:17.697Z,19.7
2016-06-27T16:47:31.637Z,19.7
2016-06-27T16:50:48.719Z,19.6
2016-06-27T16:53:52.912Z,19.6
2016-06-27T16:57:06.779Z,19.6
2016-06-27T17:00:18.447Z,19.6
2016-06-27T17:03:34.649Z,19.6
2016-06-27T17:06:48.857Z,19.6
2016-06-27T17:10:01.841Z,19.7
2016-06-27T17:13:15.868Z,19.7
2016-06-27T17:16:28.581Z,19.7
2016-06-27T17:19:47.293Z,19.7
2016-06-27T17:22:51.563Z,19.8
2016-06-27T17:26:05.613Z,19.8
2016-06-27T17:29:18.956Z,19.8
2016-06-27T17:32:33.084Z,19.8
2016-06-27T17:35:49.728Z,19.8
2016-06-27T17:38:54.023Z,19.8
2016-06-27T17:42:07.430Z,19.8
2016-06-27T17:45:21.257Z,19.8
2016-06-27T17:48:34.936Z,19.8
2016-06-27T17:51:49.058Z,19.8
2016-06-27T17:55:01.352Z,19.7
2016-06-27T17:58:13.163Z,19.7
2016-06-27T18:01:24.745Z,19.6
2016-06-27T18:04:38.091Z,19.6
2016-06-27T18:07:51.727Z,19.5
2016-06-27T18:11:05.719Z,19.5
2016-06-27T18:14:19.882Z,19.4
2016-06-27T18:17:33.554Z,19.4
2016-06-27T18:20:52.393Z,19.3
2016-06-27T18:23:56.696Z,19.3
2016-06-27T18:27:08.640Z,19.3
2016-06-27T18:30:24.629Z,19.2
2016-06-27T18:33:36.467Z,19.2
2016-06-27T18:36:50.481Z,19.1
2016-06-27T18:40:00.369Z,19.1
2016-06-27T18:43:16.490Z,19.1
2016-06-27T18:46:30.327Z,19
2016-06-27T18:49:48.993Z,18.9
2016-06-27T18:52:53.090Z,18.9
2016-06-27T18:56:06.899Z,18.9
2016-06-27T18:59:20.733Z,18.8
2016-06-27T19:02:34.590Z,18.8
2016-06-27T19:05:53.582Z,18.7
2016-06-27T19:08:57.895Z,18.7
2016-06-27T19:12:11.763Z,18.6
2016-06-27T19:15:25.609Z,18.6
2016-06-27T19:18:39.328Z,18.5
2016-06-27T19:21:53.043Z,18.5
2016-06-27T19:25:06.918Z,18.4
2016-06-27T19:28:20.667Z,18.3
2016-06-27T19:31:34.813Z,18.4
2016-06-27T19:34:53.792Z,18.4
2016-06-27T19:37:58.056Z,18.3
2016-06-27T19:41:12.099Z,18.3
2016-06-27T19:44:24.523Z,18.2
2016-06-27T19:47:38.487Z,18.1
2016-06-27T19:50:55.441Z,18
2016-06-27T19:53:59.577Z,18
2016-06-27T19:57:13.613Z,18
2016-06-27T20:00:25.580Z,18
2016-06-27T20:03:39.390Z,18
2016-06-27T20:06:51.131Z,17.9
2016-06-27T20:10:06.710Z,17.9
2016-06-27T20:13:20.654Z,17.8
2016-06-27T20:16:32.430Z,17.8
2016-06-27T20:19:51.319Z,17.7
2016-06-27T20:22:55.476Z,17.6
2016-06-27T20:26:09.057Z,17.6
2016-06-27T20:29:22.753Z,17.6
2016-06-27T20:32:35.709Z,17.5
2016-06-27T20:35:53.896Z,17.4
2016-06-27T20:38:57.896Z,17.3
2016-06-27T20:42:11.828Z,17.3
2016-06-27T20:45:25.376Z,17.2
2016-06-27T20:48:36.778Z,17.2
2016-06-27T20:51:52.743Z,17.1
2016-06-27T20:55:03.403Z,17.1
2016-06-27T20:58:17.026Z,17
2016-06-27T21:01:30.181Z,17
2016-06-27T21:04:48.883Z,17
2016-06-27T21:07:52.797Z,16.9
2016-06-27T21:11:06.144Z,16.9
2016-06-27T21:14:19.699Z,16.9
2016-06-27T21:17:33.548Z,16.8
2016-06-27T21:20:49.013Z,16.7
2016-06-27T21:23:52.854Z,16.7
2016-06-27T21:27:06.404Z,16.7
2016-06-27T21:30:20.088Z,16.6
2016-06-27T21:33:29.884Z,16.6
2016-06-27T21:36:50.337Z,16.5
2016-06-27T21:39:54.040Z,16.5
2016-06-27T21:43:07.715Z,16.4
2016-06-27T21:46:21.379Z,16.4
2016-06-27T21:49:34.791Z,16.3
2016-06-27T21:52:53.646Z,16.3
2016-06-27T21:55:57.439Z,16.3
2016-06-27T21:59:11.405Z,16.2
2016-06-27T22:02:21.455Z,16.2
2016-06-27T22:05:34.859Z,16.2
2016-06-27T22:08:53.560Z,16.1
2016-06-27T22:11:57.361Z,16.1
2016-06-27T22:15:10.964Z,16.1
2016-06-27T22:18:24.439Z,16.1
2016-06-27T22:21:37.626Z,16
2016-06-27T22:24:56.336Z,16
2016-06-27T22:28:00.091Z,16
2016-06-27T22:31:13.652Z,16
2016-06-27T22:34:25.053Z,16
2016-06-27T22:37:38.620Z,16
2016-06-27T22:40:57.093Z,16
2016-06-27T22:44:00.851Z,16
2016-06-27T22:47:14.355Z,16.1
2016-06-27T22:50:28.026Z,16
2016-06-27T22:53:41.723Z,16
2016-06-27T22:56:54.672Z,16
2016-06-27T23:00:06.881Z,16
2016-06-27T23:03:20.091Z,16
2016-06-27T23:06:33.524Z,16
2016-06-27T23:09:51.093Z,16
2016-06-27T23:12:54.777Z,16.1
2016-06-27T23:16:08.521Z,16.1
2016-06-27T23:19:22.262Z,16.1
2016-06-27T23:22:35.516Z,16.1
2016-06-27T23:25:53.313Z,16
2016-06-27T23:28:57.226Z,16
2016-06-27T23:32:10.604Z,16
2016-06-27T23:35:24.408Z,15.9
2016-06-27T23:38:36.485Z,15.9
2016-06-27T23:41:53.381Z,15.9
2016-06-27T23:44:57.229Z,15.8
2016-06-27T23:48:07.813Z,15.8
2016-06-27T23:51:21.229Z,15.8
2016-06-27T23:54:34.667Z,15.8
2016-06-27T23:57:53.267Z,15.8
